sensor_id;sensor_type;location;lat;lon;timestamp;temperature;humidity
31046;DHT22;17711;54.018;9.300;2023-02-28T00:01:34;5.00;99.90
31046;DHT22;17711;54.018;9.300;2023-02-28T00:04:03;5.00;99.90
31046;DHT22;17711;54.018;9.300;2023-02-28T00:06:33;5.00;99.90
31046;DHT22;17711;54.018;9.300;2023-02-28T00:09:02;5.00;99.90
31046;DHT22;17711;54.018;9.300;2023-02-28T00:11:30;5.10;99.90
31046;DHT22;17711;54.018;9.300;2023-02-28T00:13:59;5.10;99.90
31046;DHT22;17711;54.018;9.300;2023-02-28T00:16:27;5.10;99.90
31046;DHT22;17711;54.018;9.300;2023-02-28T00:18:56;5.20;99.90
31046;DHT22;17711;54.018;9.300;2023-02-28T00:21:24;5.10;99.90
31046;DHT22;17711;54.018;9.300;2023-02-28T00:23:55;5.10;99.90
31046;DHT22;17711;54.018;9.300;2023-02-28T00:26:23;5.00;99.90
31046;DHT22;17711;54.018;9.300;2023-02-28T00:28:52;5.00;99.90
31046;DHT22;17711;54.018;9.300;2023-02-28T00:31:21;5.00;99.90
31046;DHT22;17711;54.018;9.300;2023-02-28T00:33:49;5.00;99.90
31046;DHT22;17711;54.018;9.300;2023-02-28T00:36:18;5.00;99.90
31046;DHT22;17711;54.018;9.300;2023-02-28T00:38:47;4.90;99.90
31046;DHT22;17711;54.018;9.300;2023-02-28T00:41:17;4.90;99.90
31046;DHT22;17711;54.018;9.300;2023-02-28T00:43:46;4.80;99.90
31046;DHT22;17711;54.018;9.300;2023-02-28T00:46:15;4.80;99.90
31046;DHT22;17711;54.018;9.300;2023-02-28T00:48:44;4.80;99.90
31046;DHT22;17711;54.018;9.300;2023-02-28T00:51:12;4.80;99.90
31046;DHT22;17711;54.018;9.300;2023-02-28T00:53:41;4.80;99.90
31046;DHT22;17711;54.018;9.300;2023-02-28T00:56:10;4.80;99.90
31046;DHT22;17711;54.018;9.300;2023-02-28T00:58:43;4.80;99.90
31046;DHT22;17711;54.018;9.300;2023-02-28T01:01:12;4.80;99.90
31046;DHT22;17711;54.018;9.300;2023-02-28T01:03:40;4.80;99.90
31046;DHT22;17711;54.018;9.300;2023-02-28T01:06:09;4.80;99.90
31046;DHT22;17711;54.018;9.300;2023-02-28T01:08:38;4.90;99.90
31046;DHT22;17711;54.018;9.300;2023-02-28T01:11:11;4.90;99.90
31046;DHT22;17711;54.018;9.300;2023-02-28T01:13:41;4.90;99.90
31046;DHT22;17711;54.018;9.300;2023-02-28T01:16:10;4.90;99.90
31046;DHT22;17711;54.018;9.300;2023-02-28T01:18:40;4.90;99.90
31046;DHT22;17711;54.018;9.300;2023-02-28T01:21:11;4.90;99.90
31046;DHT22;17711;54.018;9.300;2023-02-28T01:23:40;4.90;99.90
31046;DHT22;17711;54.018;9.300;2023-02-28T01:26:11;4.90;99.90
31046;DHT22;17711;54.018;9.300;2023-02-28T01:28:42;4.80;99.90
31046;DHT22;17711;54.018;9.300;2023-02-28T01:31:11;4.80;99.90
31046;DHT22;17711;54.018;9.300;2023-02-28T01:33:39;4.80;99.90
31046;DHT22;17711;54.018;9.300;2023-02-28T01:36:11;4.70;99.90
31046;DHT22;17711;54.018;9.300;2023-02-28T01:38:39;4.70;99.90
31046;DHT22;17711;54.018;9.300;2023-02-28T01:41:10;4.70;99.90
31046;DHT22;17711;54.018;9.300;2023-02-28T01:46:54;4.80;99.90
31046;DHT22;17711;54.018;9.300;2023-02-28T01:49:22;4.80;99.90
31046;DHT22;17711;54.018;9.300;2023-02-28T01:51:54;4.80;99.90
31046;DHT22;17711;54.018;9.300;2023-02-28T01:54:27;4.80;99.90
31046;DHT22;17711;54.018;9.300;2023-02-28T01:57:00;4.80;99.90
31046;DHT22;17711;54.018;9.300;2023-02-28T01:59:34;4.90;99.90
31046;DHT22;17711;54.018;9.300;2023-02-28T02:02:06;4.90;99.90
31046;DHT22;17711;54.018;9.300;2023-02-28T02:04:38;4.90;99.90
31046;DHT22;17711;54.018;9.300;2023-02-28T02:07:08;4.80;99.90
31046;DHT22;17711;54.018;9.300;2023-02-28T02:09:37;4.80;99.90
31046;DHT22;17711;54.018;9.300;2023-02-28T02:12:14;4.80;99.90
31046;DHT22;17711;54.018;9.300;2023-02-28T02:14:54;4.80;99.90
31046;DHT22;17711;54.018;9.300;2023-02-28T02:17:32;4.80;99.90
31046;DHT22;17711;54.018;9.300;2023-02-28T02:23:33;4.70;99.90
31046;DHT22;17711;54.018;9.300;2023-02-28T02:26:51;4.70;99.90
31046;DHT22;17711;54.018;9.300;2023-02-28T02:29:47;4.70;99.90
31046;DHT22;17711;54.018;9.300;2023-02-28T02:32:46;4.80;99.90
31046;DHT22;17711;54.018;9.300;2023-02-28T02:35:22;4.80;99.90
31046;DHT22;17711;54.018;9.300;2023-02-28T02:37:59;4.80;99.90
31046;DHT22;17711;54.018;9.300;2023-02-28T02:40:35;4.80;99.90
31046;DHT22;17711;54.018;9.300;2023-02-28T02:43:10;4.80;99.90
31046;DHT22;17711;54.018;9.300;2023-02-28T02:45:43;4.70;99.90
31046;DHT22;17711;54.018;9.300;2023-02-28T02:48:16;4.70;99.90
31046;DHT22;17711;54.018;9.300;2023-02-28T02:50:51;4.70;99.90
31046;DHT22;17711;54.018;9.300;2023-02-28T02:53:25;4.70;99.90
31046;DHT22;17711;54.018;9.300;2023-02-28T02:55:58;4.70;99.90
31046;DHT22;17711;54.018;9.300;2023-02-28T02:58:34;4.70;99.90
31046;DHT22;17711;54.018;9.300;2023-02-28T03:01:12;4.70;99.90
31046;DHT22;17711;54.018;9.300;2023-02-28T03:03:42;4.80;99.90
31046;DHT22;17711;54.018;9.300;2023-02-28T03:06:14;4.80;99.90
31046;DHT22;17711;54.018;9.300;2023-02-28T03:08:43;4.80;99.90
31046;DHT22;17711;54.018;9.300;2023-02-28T03:11:14;4.80;99.90
31046;DHT22;17711;54.018;9.300;2023-02-28T03:13:58;4.80;99.90
31046;DHT22;17711;54.018;9.300;2023-02-28T03:16:56;4.80;99.90
31046;DHT22;17711;54.018;9.300;2023-02-28T03:19:36;4.90;99.90
31046;DHT22;17711;54.018;9.300;2023-02-28T03:22:28;4.80;99.90
31046;DHT22;17711;54.018;9.300;2023-02-28T03:25:06;4.70;99.90
31046;DHT22;17711;54.018;9.300;2023-02-28T03:27:40;4.70;99.90
31046;DHT22;17711;54.018;9.300;2023-02-28T03:30:13;4.70;99.90
31046;DHT22;17711;54.018;9.300;2023-02-28T03:32:48;4.70;99.90
31046;DHT22;17711;54.018;9.300;2023-02-28T03:35:21;4.70;99.90
31046;DHT22;17711;54.018;9.300;2023-02-28T03:37:54;4.70;99.90
31046;DHT22;17711;54.018;9.300;2023-02-28T03:40:26;4.70;99.90
31046;DHT22;17711;54.018;9.300;2023-02-28T03:43:01;4.70;99.90
31046;DHT22;17711;54.018;9.300;2023-02-28T03:45:33;4.70;99.90
31046;DHT22;17711;54.018;9.300;2023-02-28T03:48:08;4.70;99.90
31046;DHT22;17711;54.018;9.300;2023-02-28T03:50:40;4.70;99.90
31046;DHT22;17711;54.018;9.300;2023-02-28T03:53:16;4.60;99.90
31046;DHT22;17711;54.018;9.300;2023-02-28T03:55:49;4.50;99.90
31046;DHT22;17711;54.018;9.300;2023-02-28T03:58:24;4.60;99.90
31046;DHT22;17711;54.018;9.300;2023-02-28T04:00:58;4.60;99.90
31046;DHT22;17711;54.018;9.300;2023-02-28T04:03:27;4.50;99.90
31046;DHT22;17711;54.018;9.300;2023-02-28T04:05:57;4.50;99.90
31046;DHT22;17711;54.018;9.300;2023-02-28T04:08:27;4.50;99.90
31046;DHT22;17711;54.018;9.300;2023-02-28T04:11:00;4.50;99.90
31046;DHT22;17711;54.018;9.300;2023-02-28T04:13:29;4.40;99.90
31046;DHT22;17711;54.018;9.300;2023-02-28T04:15:58;4.30;99.90
31046;DHT22;17711;54.018;9.300;2023-02-28T04:18:26;4.10;99.90
31046;DHT22;17711;54.018;9.300;2023-02-28T04:20:55;4.00;99.90
31046;DHT22;17711;54.018;9.300;2023-02-28T04:23:24;3.90;99.90
31046;DHT22;17711;54.018;9.300;2023-02-28T04:25:56;3.70;99.90
31046;DHT22;17711;54.018;9.300;2023-02-28T04:28:24;3.70;99.90
31046;DHT22;17711;54.018;9.300;2023-02-28T04:30:56;3.70;99.90
31046;DHT22;17711;54.018;9.300;2023-02-28T04:33:26;3.60;99.90
31046;DHT22;17711;54.018;9.300;2023-02-28T04:36:01;3.60;99.90
31046;DHT22;17711;54.018;9.300;2023-02-28T04:38:33;3.50;99.90
31046;DHT22;17711;54.018;9.300;2023-02-28T04:41:04;3.40;99.90
31046;DHT22;17711;54.018;9.300;2023-02-28T04:43:32;3.30;99.90
31046;DHT22;17711;54.018;9.300;2023-02-28T04:46:03;3.20;99.90
31046;DHT22;17711;54.018;9.300;2023-02-28T04:48:33;3.20;99.90
31046;DHT22;17711;54.018;9.300;2023-02-28T04:51:03;3.20;99.90
31046;DHT22;17711;54.018;9.300;2023-02-28T04:53:32;3.00;99.90
31046;DHT22;17711;54.018;9.300;2023-02-28T04:56:03;2.90;99.90
31046;DHT22;17711;54.018;9.300;2023-02-28T04:58:33;2.80;99.90
31046;DHT22;17711;54.018;9.300;2023-02-28T05:01:02;2.70;99.90
31046;DHT22;17711;54.018;9.300;2023-02-28T05:03:31;2.70;99.90
31046;DHT22;17711;54.018;9.300;2023-02-28T05:05:59;2.80;99.90
31046;DHT22;17711;54.018;9.300;2023-02-28T05:08:28;2.80;99.90
31046;DHT22;17711;54.018;9.300;2023-02-28T05:10:57;2.90;99.90
31046;DHT22;17711;54.018;9.300;2023-02-28T05:13:29;2.90;99.90
31046;DHT22;17711;54.018;9.300;2023-02-28T05:15:57;2.90;99.90
31046;DHT22;17711;54.018;9.300;2023-02-28T05:18:26;3.00;99.90
31046;DHT22;17711;54.018;9.300;2023-02-28T05:20:54;3.00;99.90
31046;DHT22;17711;54.018;9.300;2023-02-28T05:23:23;3.00;99.90
31046;DHT22;17711;54.018;9.300;2023-02-28T05:25:51;3.00;99.90
31046;DHT22;17711;54.018;9.300;2023-02-28T05:28:21;3.10;99.90
31046;DHT22;17711;54.018;9.300;2023-02-28T05:30:51;3.00;99.90
31046;DHT22;17711;54.018;9.300;2023-02-28T05:33:20;3.00;99.90
31046;DHT22;17711;54.018;9.300;2023-02-28T05:35:48;3.00;99.90
31046;DHT22;17711;54.018;9.300;2023-02-28T05:38:17;3.00;99.90
31046;DHT22;17711;54.018;9.300;2023-02-28T05:40:45;3.00;99.90
31046;DHT22;17711;54.018;9.300;2023-02-28T05:43:14;3.10;99.90
31046;DHT22;17711;54.018;9.300;2023-02-28T05:45:42;3.10;99.90
31046;DHT22;17711;54.018;9.300;2023-02-28T05:48:12;3.00;99.90
31046;DHT22;17711;54.018;9.300;2023-02-28T05:50:41;2.90;99.90
31046;DHT22;17711;54.018;9.300;2023-02-28T05:53:11;2.80;99.90
31046;DHT22;17711;54.018;9.300;2023-02-28T05:55:40;2.80;99.90
31046;DHT22;17711;54.018;9.300;2023-02-28T05:58:09;2.70;99.90
31046;DHT22;17711;54.018;9.300;2023-02-28T06:00:37;2.60;99.90
31046;DHT22;17711;54.018;9.300;2023-02-28T06:03:08;2.40;99.90
31046;DHT22;17711;54.018;9.300;2023-02-28T06:05:38;2.30;99.90
31046;DHT22;17711;54.018;9.300;2023-02-28T06:08:07;2.10;99.90
31046;DHT22;17711;54.018;9.300;2023-02-28T06:10:35;2.00;99.90
31046;DHT22;17711;54.018;9.300;2023-02-28T06:13:05;1.90;99.90
31046;DHT22;17711;54.018;9.300;2023-02-28T06:15:34;1.90;99.90
31046;DHT22;17711;54.018;9.300;2023-02-28T06:18:03;1.80;99.90
31046;DHT22;17711;54.018;9.300;2023-02-28T06:20:31;1.60;99.90
31046;DHT22;17711;54.018;9.300;2023-02-28T06:23:01;1.60;99.90
31046;DHT22;17711;54.018;9.300;2023-02-28T06:25:30;1.60;99.90
31046;DHT22;17711;54.018;9.300;2023-02-28T06:27:59;1.60;99.90
31046;DHT22;17711;54.018;9.300;2023-02-28T06:30:28;1.50;99.90
31046;DHT22;17711;54.018;9.300;2023-02-28T06:32:58;1.60;99.90
31046;DHT22;17711;54.018;9.300;2023-02-28T06:35:26;1.60;99.90
31046;DHT22;17711;54.018;9.300;2023-02-28T06:37:55;1.70;99.90
31046;DHT22;17711;54.018;9.300;2023-02-28T06:40:25;1.70;99.90
31046;DHT22;17711;54.018;9.300;2023-02-28T06:42:53;1.70;99.90
31046;DHT22;17711;54.018;9.300;2023-02-28T06:45:22;1.70;99.90
31046;DHT22;17711;54.018;9.300;2023-02-28T06:47:53;1.70;99.90
31046;DHT22;17711;54.018;9.300;2023-02-28T06:50:21;1.80;99.90
31046;DHT22;17711;54.018;9.300;2023-02-28T06:52:50;1.80;99.90
31046;DHT22;17711;54.018;9.300;2023-02-28T06:55:20;1.80;99.90
31046;DHT22;17711;54.018;9.300;2023-02-28T06:57:50;1.90;99.90
31046;DHT22;17711;54.018;9.300;2023-02-28T07:00:20;1.90;99.90
31046;DHT22;17711;54.018;9.300;2023-02-28T07:02:48;1.90;99.90
31046;DHT22;17711;54.018;9.300;2023-02-28T07:05:17;1.90;99.90
31046;DHT22;17711;54.018;9.300;2023-02-28T07:07:45;1.90;99.90
31046;DHT22;17711;54.018;9.300;2023-02-28T07:10:14;2.00;99.90
31046;DHT22;17711;54.018;9.300;2023-02-28T07:12:46;2.10;99.90
31046;DHT22;17711;54.018;9.300;2023-02-28T07:15:16;2.10;99.90
31046;DHT22;17711;54.018;9.300;2023-02-28T07:17:45;2.20;99.90
31046;DHT22;17711;54.018;9.300;2023-02-28T07:20:14;2.30;99.90
31046;DHT22;17711;54.018;9.300;2023-02-28T07:22:42;2.40;99.90
31046;DHT22;17711;54.018;9.300;2023-02-28T07:25:11;2.60;99.90
31046;DHT22;17711;54.018;9.300;2023-02-28T07:27:39;2.70;99.90
31046;DHT22;17711;54.018;9.300;2023-02-28T07:30:09;2.80;99.90
31046;DHT22;17711;54.018;9.300;2023-02-28T07:32:40;2.90;99.90
31046;DHT22;17711;54.018;9.300;2023-02-28T07:35:11;3.00;99.90
31046;DHT22;17711;54.018;9.300;2023-02-28T07:37:39;3.20;99.90
31046;DHT22;17711;54.018;9.300;2023-02-28T07:40:10;3.30;99.90
31046;DHT22;17711;54.018;9.300;2023-02-28T07:42:40;3.40;99.90
31046;DHT22;17711;54.018;9.300;2023-02-28T07:45:10;3.60;99.90
31046;DHT22;17711;54.018;9.300;2023-02-28T07:47:40;4.00;99.90
31046;DHT22;17711;54.018;9.300;2023-02-28T07:50:11;4.40;99.90
31046;DHT22;17711;54.018;9.300;2023-02-28T07:52:41;4.60;99.90
31046;DHT22;17711;54.018;9.300;2023-02-28T07:55:10;4.70;99.90
31046;DHT22;17711;54.018;9.300;2023-02-28T07:57:39;4.80;99.90
31046;DHT22;17711;54.018;9.300;2023-02-28T08:00:11;5.10;99.90
31046;DHT22;17711;54.018;9.300;2023-02-28T08:02:43;6.00;99.90
31046;DHT22;17711;54.018;9.300;2023-02-28T08:05:12;7.00;99.90
31046;DHT22;17711;54.018;9.300;2023-02-28T08:07:41;7.80;99.90
31046;DHT22;17711;54.018;9.300;2023-02-28T08:10:10;8.40;99.90
31046;DHT22;17711;54.018;9.300;2023-02-28T08:12:39;8.40;99.90
31046;DHT22;17711;54.018;9.300;2023-02-28T08:15:08;8.20;99.90
31046;DHT22;17711;54.018;9.300;2023-02-28T08:17:38;7.70;99.90
31046;DHT22;17711;54.018;9.300;2023-02-28T08:20:10;7.50;99.90
31046;DHT22;17711;54.018;9.300;2023-02-28T08:22:38;7.70;99.90
31046;DHT22;17711;54.018;9.300;2023-02-28T08:25:11;8.10;99.90
31046;DHT22;17711;54.018;9.300;2023-02-28T08:27:40;8.70;99.90
31046;DHT22;17711;54.018;9.300;2023-02-28T08:30:11;9.00;99.90
31046;DHT22;17711;54.018;9.300;2023-02-28T08:32:40;9.10;99.90
31046;DHT22;17711;54.018;9.300;2023-02-28T08:35:10;9.10;99.90
31046;DHT22;17711;54.018;9.300;2023-02-28T08:37:39;9.10;99.90
31046;DHT22;17711;54.018;9.300;2023-02-28T08:40:09;9.20;99.90
31046;DHT22;17711;54.018;9.300;2023-02-28T08:42:38;9.10;99.90
31046;DHT22;17711;54.018;9.300;2023-02-28T08:45:07;8.90;99.90
31046;DHT22;17711;54.018;9.300;2023-02-28T08:47:35;8.90;99.90
31046;DHT22;17711;54.018;9.300;2023-02-28T08:50:04;9.00;99.90
31046;DHT22;17711;54.018;9.300;2023-02-28T08:52:34;9.10;99.90
31046;DHT22;17711;54.018;9.300;2023-02-28T08:55:03;8.70;99.90
31046;DHT22;17711;54.018;9.300;2023-02-28T08:57:32;8.70;99.90
31046;DHT22;17711;54.018;9.300;2023-02-28T09:00:01;8.60;99.90
31046;DHT22;17711;54.018;9.300;2023-02-28T09:02:31;8.80;99.90
31046;DHT22;17711;54.018;9.300;2023-02-28T09:05:00;9.50;99.90
31046;DHT22;17711;54.018;9.300;2023-02-28T09:07:28;9.80;99.90
31046;DHT22;17711;54.018;9.300;2023-02-28T09:09:58;10.10;99.90
31046;DHT22;17711;54.018;9.300;2023-02-28T09:12:27;10.40;99.90
31046;DHT22;17711;54.018;9.300;2023-02-28T09:15:04;10.50;99.90
31046;DHT22;17711;54.018;9.300;2023-02-28T09:17:43;10.60;99.90
31046;DHT22;17711;54.018;9.300;2023-02-28T09:20:29;10.90;99.90
31046;DHT22;17711;54.018;9.300;2023-02-28T09:23:11;11.10;99.90
31046;DHT22;17711;54.018;9.300;2023-02-28T09:25:54;11.30;99.90
31046;DHT22;17711;54.018;9.300;2023-02-28T09:28:34;11.20;99.90
31046;DHT22;17711;54.018;9.300;2023-02-28T09:31:16;11.70;99.90
31046;DHT22;17711;54.018;9.300;2023-02-28T09:33:53;12.70;99.30
31046;DHT22;17711;54.018;9.300;2023-02-28T09:36:31;13.70;80.80
31046;DHT22;17711;54.018;9.300;2023-02-28T09:39:15;14.00;73.70
31046;DHT22;17711;54.018;9.300;2023-02-28T09:41:52;13.70;81.60
31046;DHT22;17711;54.018;9.300;2023-02-28T09:44:30;13.50;73.20
31046;DHT22;17711;54.018;9.300;2023-02-28T09:47:10;13.60;84.00
31046;DHT22;17711;54.018;9.300;2023-02-28T09:49:47;13.80;75.70
31046;DHT22;17711;54.018;9.300;2023-02-28T09:52:29;13.90;76.00
31046;DHT22;17711;54.018;9.300;2023-02-28T09:55:19;14.30;65.90
31046;DHT22;17711;54.018;9.300;2023-02-28T09:57:53;13.60;67.60
31046;DHT22;17711;54.018;9.300;2023-02-28T10:00:32;13.00;85.60
31046;DHT22;17711;54.018;9.300;2023-02-28T10:03:27;13.00;94.00
31046;DHT22;17711;54.018;9.300;2023-02-28T10:06:10;13.00;81.30
31046;DHT22;17711;54.018;9.300;2023-02-28T10:08:50;12.80;79.80
31046;DHT22;17711;54.018;9.300;2023-02-28T10:11:24;13.20;99.90
31046;DHT22;17711;54.018;9.300;2023-02-28T10:13:59;13.70;78.30
31046;DHT22;17711;54.018;9.300;2023-02-28T10:16:38;13.30;58.20
31046;DHT22;17711;54.018;9.300;2023-02-28T10:19:12;13.20;78.80
31046;DHT22;17711;54.018;9.300;2023-02-28T10:21:48;13.90;82.20
31046;DHT22;17711;54.018;9.300;2023-02-28T10:24:27;14.60;70.10
31046;DHT22;17711;54.018;9.300;2023-02-28T10:27:00;14.70;66.80
31046;DHT22;17711;54.018;9.300;2023-02-28T10:29:34;14.90;59.80
31046;DHT22;17711;54.018;9.300;2023-02-28T10:32:04;15.30;65.80
31046;DHT22;17711;54.018;9.300;2023-02-28T10:34:34;16.10;59.30
31046;DHT22;17711;54.018;9.300;2023-02-28T10:37:04;16.90;52.20
31046;DHT22;17711;54.018;9.300;2023-02-28T10:39:40;18.60;46.50
31046;DHT22;17711;54.018;9.300;2023-02-28T10:42:22;19.90;42.70
31046;DHT22;17711;54.018;9.300;2023-02-28T10:45:14;21.00;38.70
31046;DHT22;17711;54.018;9.300;2023-02-28T10:47:53;22.20;39.50
31046;DHT22;17711;54.018;9.300;2023-02-28T10:50:42;23.20;36.60
31046;DHT22;17711;54.018;9.300;2023-02-28T10:53:32;24.00;32.40
31046;DHT22;17711;54.018;9.300;2023-02-28T10:56:23;24.00;29.00
31046;DHT22;17711;54.018;9.300;2023-02-28T10:58:55;23.90;29.30
31046;DHT22;17711;54.018;9.300;2023-02-28T11:01:41;24.10;29.30
31046;DHT22;17711;54.018;9.300;2023-02-28T11:04:32;24.80;29.80
31046;DHT22;17711;54.018;9.300;2023-02-28T11:07:16;25.10;28.80
31046;DHT22;17711;54.018;9.300;2023-02-28T11:09:50;24.80;29.10
31046;DHT22;17711;54.018;9.300;2023-02-28T11:12:22;25.30;27.00
31046;DHT22;17711;54.018;9.300;2023-02-28T11:14:55;25.90;27.70
31046;DHT22;17711;54.018;9.300;2023-02-28T11:17:27;25.60;26.70
31046;DHT22;17711;54.018;9.300;2023-02-28T11:20:01;25.20;27.30
31046;DHT22;17711;54.018;9.300;2023-02-28T11:22:35;25.50;27.20
31046;DHT22;17711;54.018;9.300;2023-02-28T11:25:20;25.50;28.50
31046;DHT22;17711;54.018;9.300;2023-02-28T11:27:52;25.90;27.60
31046;DHT22;17711;54.018;9.300;2023-02-28T11:30:33;26.20;25.30
31046;DHT22;17711;54.018;9.300;2023-02-28T11:33:22;26.50;24.50
31046;DHT22;17711;54.018;9.300;2023-02-28T11:35:57;26.20;27.00
31046;DHT22;17711;54.018;9.300;2023-02-28T11:38:34;26.10;25.20
31046;DHT22;17711;54.018;9.300;2023-02-28T11:41:37;26.60;25.10
31046;DHT22;17711;54.018;9.300;2023-02-28T11:44:20;25.60;25.20
31046;DHT22;17711;54.018;9.300;2023-02-28T11:46:56;25.80;26.50
31046;DHT22;17711;54.018;9.300;2023-02-28T11:49:34;26.20;25.30
31046;DHT22;17711;54.018;9.300;2023-02-28T11:52:14;26.60;25.00
31046;DHT22;17711;54.018;9.300;2023-02-28T11:54:50;26.40;24.50
31046;DHT22;17711;54.018;9.300;2023-02-28T11:57:35;27.00;23.30
31046;DHT22;17711;54.018;9.300;2023-02-28T12:00:18;27.10;24.80
31046;DHT22;17711;54.018;9.300;2023-02-28T12:03:00;27.30;24.30
31046;DHT22;17711;54.018;9.300;2023-02-28T12:05:43;27.40;24.60
31046;DHT22;17711;54.018;9.300;2023-02-28T12:08:26;26.80;24.50
31046;DHT22;17711;54.018;9.300;2023-02-28T12:11:10;26.80;24.70
31046;DHT22;17711;54.018;9.300;2023-02-28T12:13:52;26.70;24.10
31046;DHT22;17711;54.018;9.300;2023-02-28T12:16:41;27.00;24.30
31046;DHT22;17711;54.018;9.300;2023-02-28T12:19:21;27.40;23.30
31046;DHT22;17711;54.018;9.300;2023-02-28T12:22:19;27.70;23.30
31046;DHT22;17711;54.018;9.300;2023-02-28T12:28:01;27.70;23.90
31046;DHT22;17711;54.018;9.300;2023-02-28T12:30:33;26.70;24.70
31046;DHT22;17711;54.018;9.300;2023-02-28T12:33:09;26.70;24.00
31046;DHT22;17711;54.018;9.300;2023-02-28T12:35:44;26.30;23.80
31046;DHT22;17711;54.018;9.300;2023-02-28T12:38:22;25.90;25.50
31046;DHT22;17711;54.018;9.300;2023-02-28T12:41:04;25.40;24.60
31046;DHT22;17711;54.018;9.300;2023-02-28T12:43:38;25.40;24.60
31046;DHT22;17711;54.018;9.300;2023-02-28T12:46:12;24.80;25.20
31046;DHT22;17711;54.018;9.300;2023-02-28T12:48:48;23.90;26.70
31046;DHT22;17711;54.018;9.300;2023-02-28T12:51:20;22.70;28.70
31046;DHT22;17711;54.018;9.300;2023-02-28T12:54:02;22.30;30.10
31046;DHT22;17711;54.018;9.300;2023-02-28T12:56:42;22.10;31.70
31046;DHT22;17711;54.018;9.300;2023-02-28T12:59:19;21.90;31.10
31046;DHT22;17711;54.018;9.300;2023-02-28T13:02:18;21.40;30.70
31046;DHT22;17711;54.018;9.300;2023-02-28T13:11:24;21.60;30.00
31046;DHT22;17711;54.018;9.300;2023-02-28T13:14:01;21.40;32.80
31046;DHT22;17711;54.018;9.300;2023-02-28T13:16:54;21.70;30.70
31046;DHT22;17711;54.018;9.300;2023-02-28T13:19:27;22.10;30.10
31046;DHT22;17711;54.018;9.300;2023-02-28T13:22:00;22.40;29.50
31046;DHT22;17711;54.018;9.300;2023-02-28T13:24:47;22.10;30.00
31046;DHT22;17711;54.018;9.300;2023-02-28T13:27:34;22.70;29.90
31046;DHT22;17711;54.018;9.300;2023-02-28T13:33:23;22.60;30.00
31046;DHT22;17711;54.018;9.300;2023-02-28T13:36:08;23.50;29.70
31046;DHT22;17711;54.018;9.300;2023-02-28T13:38:39;24.00;28.70
31046;DHT22;17711;54.018;9.300;2023-02-28T13:41:44;24.20;29.30
31046;DHT22;17711;54.018;9.300;2023-02-28T13:44:17;24.80;27.60
31046;DHT22;17711;54.018;9.300;2023-02-28T13:49:36;25.00;26.80
31046;DHT22;17711;54.018;9.300;2023-02-28T13:52:11;24.70;25.50
31046;DHT22;17711;54.018;9.300;2023-02-28T13:55:03;24.40;25.60
31046;DHT22;17711;54.018;9.300;2023-02-28T13:58:05;24.10;26.70
31046;DHT22;17711;54.018;9.300;2023-02-28T14:01:03;24.90;27.30
31046;DHT22;17711;54.018;9.300;2023-02-28T14:03:53;25.20;24.40
31046;DHT22;17711;54.018;9.300;2023-02-28T14:06:29;24.80;27.00
31046;DHT22;17711;54.018;9.300;2023-02-28T14:09:03;25.00;26.40
31046;DHT22;17711;54.018;9.300;2023-02-28T14:11:38;24.20;25.70
31046;DHT22;17711;54.018;9.300;2023-02-28T14:14:08;23.00;27.80
31046;DHT22;17711;54.018;9.300;2023-02-28T14:16:45;22.70;29.10
31046;DHT22;17711;54.018;9.300;2023-02-28T14:19:22;22.80;29.20
31046;DHT22;17711;54.018;9.300;2023-02-28T14:22:09;22.20;29.10
31046;DHT22;17711;54.018;9.300;2023-02-28T14:25:05;21.40;29.30
31046;DHT22;17711;54.018;9.300;2023-02-28T14:27:45;20.50;32.50
31046;DHT22;17711;54.018;9.300;2023-02-28T14:30:40;20.20;31.10
31046;DHT22;17711;54.018;9.300;2023-02-28T14:36:22;19.00;31.60
31046;DHT22;17711;54.018;9.300;2023-02-28T14:38:57;18.70;33.40
31046;DHT22;17711;54.018;9.300;2023-02-28T14:41:32;18.20;34.00
31046;DHT22;17711;54.018;9.300;2023-02-28T14:44:19;17.60;35.00
31046;DHT22;17711;54.018;9.300;2023-02-28T14:46:51;16.40;37.00
31046;DHT22;17711;54.018;9.300;2023-02-28T14:49:28;15.70;39.20
31046;DHT22;17711;54.018;9.300;2023-02-28T14:52:07;15.10;42.70
31046;DHT22;17711;54.018;9.300;2023-02-28T14:54:41;14.20;43.30
31046;DHT22;17711;54.018;9.300;2023-02-28T14:57:23;13.50;46.90
31046;DHT22;17711;54.018;9.300;2023-02-28T15:00:07;13.10;48.70
31046;DHT22;17711;54.018;9.300;2023-02-28T15:02:45;13.10;52.40
31046;DHT22;17711;54.018;9.300;2023-02-28T15:05:32;13.30;56.30
31046;DHT22;17711;54.018;9.300;2023-02-28T15:08:05;13.10;59.00
31046;DHT22;17711;54.018;9.300;2023-02-28T15:10:34;12.90;71.50
31046;DHT22;17711;54.018;9.300;2023-02-28T15:13:11;12.80;67.90
31046;DHT22;17711;54.018;9.300;2023-02-28T15:15:46;12.50;73.60
31046;DHT22;17711;54.018;9.300;2023-02-28T15:18:34;12.30;61.90
31046;DHT22;17711;54.018;9.300;2023-02-28T15:21:10;12.10;68.60
31046;DHT22;17711;54.018;9.300;2023-02-28T15:23:43;11.90;77.40
31046;DHT22;17711;54.018;9.300;2023-02-28T15:26:16;11.80;71.00
31046;DHT22;17711;54.018;9.300;2023-02-28T15:28:46;11.70;92.10
31046;DHT22;17711;54.018;9.300;2023-02-28T15:31:23;11.50;80.70
31046;DHT22;17711;54.018;9.300;2023-02-28T15:33:55;11.40;95.10
31046;DHT22;17711;54.018;9.300;2023-02-28T15:36:28;11.20;99.90
31046;DHT22;17711;54.018;9.300;2023-02-28T15:39:00;11.30;99.90
31046;DHT22;17711;54.018;9.300;2023-02-28T15:41:41;11.40;99.90
31046;DHT22;17711;54.018;9.300;2023-02-28T15:44:24;11.20;99.90
31046;DHT22;17711;54.018;9.300;2023-02-28T15:46:58;10.90;99.90
31046;DHT22;17711;54.018;9.300;2023-02-28T15:49:38;11.00;99.90
31046;DHT22;17711;54.018;9.300;2023-02-28T15:52:16;11.00;98.90
31046;DHT22;17711;54.018;9.300;2023-02-28T15:54:47;10.90;99.90
31046;DHT22;17711;54.018;9.300;2023-02-28T15:57:20;10.90;99.90
31046;DHT22;17711;54.018;9.300;2023-02-28T15:59:52;10.80;99.90
31046;DHT22;17711;54.018;9.300;2023-02-28T16:02:30;10.70;99.90
31046;DHT22;17711;54.018;9.300;2023-02-28T16:07:48;10.70;99.90
31046;DHT22;17711;54.018;9.300;2023-02-28T16:10:17;10.70;99.90
31046;DHT22;17711;54.018;9.300;2023-02-28T16:12:46;10.80;99.90
31046;DHT22;17711;54.018;9.300;2023-02-28T16:15:19;10.80;99.90
31046;DHT22;17711;54.018;9.300;2023-02-28T16:17:50;10.60;99.90
31046;DHT22;17711;54.018;9.300;2023-02-28T16:20:21;10.60;99.90
31046;DHT22;17711;54.018;9.300;2023-02-28T16:22:52;10.60;99.90
31046;DHT22;17711;54.018;9.300;2023-02-28T16:25:23;10.50;99.90
31046;DHT22;17711;54.018;9.300;2023-02-28T16:27:55;10.50;99.90
31046;DHT22;17711;54.018;9.300;2023-02-28T16:30:27;10.40;99.90
31046;DHT22;17711;54.018;9.300;2023-02-28T16:32:59;10.30;99.90
31046;DHT22;17711;54.018;9.300;2023-02-28T16:35:28;10.10;99.90
31046;DHT22;17711;54.018;9.300;2023-02-28T16:37:59;10.00;99.90
31046;DHT22;17711;54.018;9.300;2023-02-28T16:40:34;10.00;99.90
31046;DHT22;17711;54.018;9.300;2023-02-28T16:43:07;9.90;99.90
31046;DHT22;17711;54.018;9.300;2023-02-28T16:45:40;9.80;99.90
31046;DHT22;17711;54.018;9.300;2023-02-28T16:48:13;9.80;99.90
31046;DHT22;17711;54.018;9.300;2023-02-28T16:50:43;9.70;99.90
31046;DHT22;17711;54.018;9.300;2023-02-28T16:53:13;9.60;99.90